Etusivu
METAR-TAF:

METAR-TAF

Lentoasemat :

New Braunfels Municipal Airport

New Braunfels, Texas, Yhdysvallat

Leveyspiiri: 29-42-31N, Pituuspiiri: 098-02-43W, korkeus merenpinnasta: 197 m

Tämänhetkinen sää

Tämä raportti tehtiin 11 minuuttia sitten, kello 03.21 UTC
tyyntä
Lämpötila 22°C
Kosteus 88%
Ilmanpaine 1016 hPa
Näkyvyys: 11.3 km
Muutamia pilviä 600 ft:n korkeudessa
Hajanaisia pilviä 4100 ft:n korkeudessa

METAR: KBAZ 070321Z AUTO 00000KT 7SM FEW006 SCT041 22/20 A3000 RMK AO2 T02170200

Aika: 22:32 (03:32 UTC)


TAF: puuttuu

Säähavainnot ja -ennusteet yli 4000 lentoasemalta (METAR- ja TAF-raportit).

Käytössä olevat sääasemat on merkitty karttaan keltaisilla ja punaisilla pisteillä.

Aseta hiiri pisteen päälle nähdäksesi sääaseman nimen.

Klikkaa sitten nähdäksesi säähavainnot ja -ennusteet.

Kartan vaihtaminen: klikkaa mustalla rastilla varustettuja vihreitä pisteitä, niin voit zoomata sisään; viivalla varustettua vihreää pistettä, niin voit zoomata ulos tai vihreitä nuolia, niin pääset viereisille kartoille.


METAR-TAF: